sensor_id;sensor_type;location;lat;lon;timestamp;P1;durP1;ratioP1;P2;durP2;ratioP2
45368;SDS011;51342;55.250;37.668;2024-01-30T00:00:14;16.03;;;7.73;;
45368;SDS011;51342;55.250;37.668;2024-01-30T00:02:46;17.77;;;8.40;;
45368;SDS011;51342;55.250;37.668;2024-01-30T00:05:17;18.27;;;8.50;;
45368;SDS011;51342;55.250;37.668;2024-01-30T00:07:49;18.70;;;9.17;;
45368;SDS011;51342;55.250;37.668;2024-01-30T00:10:21;19.23;;;8.43;;
45368;SDS011;51342;55.250;37.668;2024-01-30T00:12:53;18.97;;;8.53;;
45368;SDS011;51342;55.250;37.668;2024-01-30T00:15:24;18.03;;;7.87;;
45368;SDS011;51342;55.250;37.668;2024-01-30T00:17:55;18.60;;;7.93;;
45368;SDS011;51342;55.250;37.668;2024-01-30T00:20:27;17.13;;;8.10;;
45368;SDS011;51342;55.250;37.668;2024-01-30T00:22:59;19.73;;;9.20;;
45368;SDS011;51342;55.250;37.668;2024-01-30T00:25:30;16.50;;;9.27;;
45368;SDS011;51342;55.250;37.668;2024-01-30T00:28:02;17.37;;;7.97;;
45368;SDS011;51342;55.250;37.668;2024-01-30T00:30:33;15.27;;;7.90;;
45368;SDS011;51342;55.250;37.668;2024-01-30T00:33:05;19.37;;;8.93;;
45368;SDS011;51342;55.250;37.668;2024-01-30T00:35:36;18.67;;;8.80;;
45368;SDS011;51342;55.250;37.668;2024-01-30T00:38:08;18.73;;;8.90;;
45368;SDS011;51342;55.250;37.668;2024-01-30T00:40:39;20.47;;;8.93;;
45368;SDS011;51342;55.250;37.668;2024-01-30T00:43:10;19.67;;;8.70;;
45368;SDS011;51342;55.250;37.668;2024-01-30T00:45:45;19.23;;;8.00;;
45368;SDS011;51342;55.250;37.668;2024-01-30T00:48:17;18.83;;;8.30;;
45368;SDS011;51342;55.250;37.668;2024-01-30T00:50:48;19.30;;;8.90;;
45368;SDS011;51342;55.250;37.668;2024-01-30T00:53:20;18.70;;;8.87;;
45368;SDS011;51342;55.250;37.668;2024-01-30T00:55:51;20.77;;;8.67;;
45368;SDS011;51342;55.250;37.668;2024-01-30T00:58:23;19.23;;;7.70;;
45368;SDS011;51342;55.250;37.668;2024-01-30T01:00:54;16.70;;;8.20;;
45368;SDS011;51342;55.250;37.668;2024-01-30T01:03:26;18.57;;;8.47;;
45368;SDS011;51342;55.250;37.668;2024-01-30T01:05:57;18.73;;;8.60;;
45368;SDS011;51342;55.250;37.668;2024-01-30T01:08:29;17.00;;;8.13;;
45368;SDS011;51342;55.250;37.668;2024-01-30T01:11:00;18.00;;;8.10;;
45368;SDS011;51342;55.250;37.668;2024-01-30T01:13:32;15.60;;;7.50;;
45368;SDS011;51342;55.250;37.668;2024-01-30T01:16:03;20.47;;;7.93;;
45368;SDS011;51342;55.250;37.668;2024-01-30T01:18:35;19.87;;;8.70;;
45368;SDS011;51342;55.250;37.668;2024-01-30T01:21:06;18.40;;;9.40;;
45368;SDS011;51342;55.250;37.668;2024-01-30T01:23:37;20.47;;;9.13;;
45368;SDS011;51342;55.250;37.668;2024-01-30T01:26:09;16.90;;;8.70;;
45368;SDS011;51342;55.250;37.668;2024-01-30T01:28:41;17.60;;;8.17;;
45368;SDS011;51342;55.250;37.668;2024-01-30T01:31:12;18.23;;;8.30;;
45368;SDS011;51342;55.250;37.668;2024-01-30T01:33:43;18.97;;;8.53;;
45368;SDS011;51342;55.250;37.668;2024-01-30T01:36:15;20.37;;;8.47;;
45368;SDS011;51342;55.250;37.668;2024-01-30T01:38:46;17.60;;;7.93;;
45368;SDS011;51342;55.250;37.668;2024-01-30T01:41:18;19.70;;;8.27;;
45368;SDS011;51342;55.250;37.668;2024-01-30T01:43:49;20.03;;;8.63;;
45368;SDS011;51342;55.250;37.668;2024-01-30T01:46:21;19.20;;;8.50;;
45368;SDS011;51342;55.250;37.668;2024-01-30T01:48:53;19.50;;;8.53;;
45368;SDS011;51342;55.250;37.668;2024-01-30T01:51:27;20.27;;;9.90;;
45368;SDS011;51342;55.250;37.668;2024-01-30T01:54:02;19.97;;;8.47;;
45368;SDS011;51342;55.250;37.668;2024-01-30T01:56:36;16.27;;;8.37;;
45368;SDS011;51342;55.250;37.668;2024-01-30T01:59:09;19.60;;;9.47;;
45368;SDS011;51342;55.250;37.668;2024-01-30T02:01:40;18.40;;;9.53;;
45368;SDS011;51342;55.250;37.668;2024-01-30T02:04:12;17.40;;;7.83;;
45368;SDS011;51342;55.250;37.668;2024-01-30T02:06:44;17.90;;;8.33;;
45368;SDS011;51342;55.250;37.668;2024-01-30T02:09:15;17.60;;;8.37;;
45368;SDS011;51342;55.250;37.668;2024-01-30T02:11:47;19.00;;;9.27;;
45368;SDS011;51342;55.250;37.668;2024-01-30T02:14:19;19.43;;;8.63;;
45368;SDS011;51342;55.250;37.668;2024-01-30T02:16:50;17.30;;;8.93;;
45368;SDS011;51342;55.250;37.668;2024-01-30T02:19:22;18.73;;;8.47;;
45368;SDS011;51342;55.250;37.668;2024-01-30T02:21:53;16.07;;;7.53;;
45368;SDS011;51342;55.250;37.668;2024-01-30T02:24:25;19.53;;;9.30;;
45368;SDS011;51342;55.250;37.668;2024-01-30T02:26:56;18.20;;;8.77;;
45368;SDS011;51342;55.250;37.668;2024-01-30T02:29:28;16.33;;;8.07;;
45368;SDS011;51342;55.250;37.668;2024-01-30T02:31:59;19.33;;;9.23;;
45368;SDS011;51342;55.250;37.668;2024-01-30T02:34:31;20.70;;;8.00;;
45368;SDS011;51342;55.250;37.668;2024-01-30T02:37:02;19.17;;;8.20;;
45368;SDS011;51342;55.250;37.668;2024-01-30T02:39:34;17.17;;;7.63;;
45368;SDS011;51342;55.250;37.668;2024-01-30T02:42:05;19.70;;;8.60;;
45368;SDS011;51342;55.250;37.668;2024-01-30T02:44:37;16.93;;;7.97;;
45368;SDS011;51342;55.250;37.668;2024-01-30T02:47:08;18.67;;;8.30;;
45368;SDS011;51342;55.250;37.668;2024-01-30T02:49:39;18.43;;;8.47;;
45368;SDS011;51342;55.250;37.668;2024-01-30T02:52:11;17.97;;;8.27;;
45368;SDS011;51342;55.250;37.668;2024-01-30T02:54:42;18.97;;;8.27;;
45368;SDS011;51342;55.250;37.668;2024-01-30T02:57:14;15.60;;;7.60;;
45368;SDS011;51342;55.250;37.668;2024-01-30T02:59:45;17.90;;;8.10;;
45368;SDS011;51342;55.250;37.668;2024-01-30T03:02:16;19.33;;;8.40;;
45368;SDS011;51342;55.250;37.668;2024-01-30T03:04:48;18.30;;;8.63;;
45368;SDS011;51342;55.250;37.668;2024-01-30T03:07:19;18.07;;;8.20;;
45368;SDS011;51342;55.250;37.668;2024-01-30T03:09:51;17.77;;;8.17;;
45368;SDS011;51342;55.250;37.668;2024-01-30T03:12:22;18.40;;;8.43;;
45368;SDS011;51342;55.250;37.668;2024-01-30T03:14:53;19.87;;;8.73;;
45368;SDS011;51342;55.250;37.668;2024-01-30T03:17:25;19.33;;;9.20;;
45368;SDS011;51342;55.250;37.668;2024-01-30T03:19:56;17.70;;;8.90;;
45368;SDS011;51342;55.250;37.668;2024-01-30T03:22:28;20.23;;;9.27;;
45368;SDS011;51342;55.250;37.668;2024-01-30T03:24:59;20.43;;;9.67;;
45368;SDS011;51342;55.250;37.668;2024-01-30T03:27:31;18.27;;;8.63;;
45368;SDS011;51342;55.250;37.668;2024-01-30T03:30:02;20.73;;;9.53;;
45368;SDS011;51342;55.250;37.668;2024-01-30T03:32:34;21.03;;;8.93;;
45368;SDS011;51342;55.250;37.668;2024-01-30T03:35:05;17.97;;;8.80;;
45368;SDS011;51342;55.250;37.668;2024-01-30T03:37:37;20.00;;;9.03;;
45368;SDS011;51342;55.250;37.668;2024-01-30T03:40:08;23.63;;;9.60;;
45368;SDS011;51342;55.250;37.668;2024-01-30T03:42:40;21.07;;;10.30;;
45368;SDS011;51342;55.250;37.668;2024-01-30T03:45:12;19.10;;;9.37;;
45368;SDS011;51342;55.250;37.668;2024-01-30T03:47:43;23.63;;;10.30;;
45368;SDS011;51342;55.250;37.668;2024-01-30T03:50:15;23.20;;;9.77;;
45368;SDS011;51342;55.250;37.668;2024-01-30T03:52:46;22.87;;;10.17;;
45368;SDS011;51342;55.250;37.668;2024-01-30T03:55:17;21.23;;;9.63;;
45368;SDS011;51342;55.250;37.668;2024-01-30T03:57:49;22.33;;;9.63;;
45368;SDS011;51342;55.250;37.668;2024-01-30T04:00:20;21.27;;;10.73;;
45368;SDS011;51342;55.250;37.668;2024-01-30T04:02:52;23.43;;;9.63;;
45368;SDS011;51342;55.250;37.668;2024-01-30T04:05:23;21.33;;;10.03;;
45368;SDS011;51342;55.250;37.668;2024-01-30T04:07:55;20.80;;;10.40;;
45368;SDS011;51342;55.250;37.668;2024-01-30T04:10:26;21.57;;;10.37;;
45368;SDS011;51342;55.250;37.668;2024-01-30T04:12:57;21.90;;;10.30;;
45368;SDS011;51342;55.250;37.668;2024-01-30T04:15:29;19.73;;;9.80;;
45368;SDS011;51342;55.250;37.668;2024-01-30T04:18:00;22.87;;;11.30;;
45368;SDS011;51342;55.250;37.668;2024-01-30T04:20:32;20.40;;;9.97;;
45368;SDS011;51342;55.250;37.668;2024-01-30T04:23:03;21.57;;;9.63;;
45368;SDS011;51342;55.250;37.668;2024-01-30T04:25:35;23.20;;;10.37;;
45368;SDS011;51342;55.250;37.668;2024-01-30T04:28:06;21.47;;;10.20;;
45368;SDS011;51342;55.250;37.668;2024-01-30T04:30:38;20.47;;;9.40;;
45368;SDS011;51342;55.250;37.668;2024-01-30T04:33:10;18.83;;;9.63;;
45368;SDS011;51342;55.250;37.668;2024-01-30T04:35:41;22.60;;;10.43;;
45368;SDS011;51342;55.250;37.668;2024-01-30T04:38:13;23.67;;;10.33;;
45368;SDS011;51342;55.250;37.668;2024-01-30T04:40:45;22.53;;;10.27;;
45368;SDS011;51342;55.250;37.668;2024-01-30T04:43:17;20.97;;;9.60;;
45368;SDS011;51342;55.250;37.668;2024-01-30T04:45:49;16.77;;;8.43;;
45368;SDS011;51342;55.250;37.668;2024-01-30T04:48:21;22.10;;;9.47;;
45368;SDS011;51342;55.250;37.668;2024-01-30T04:50:52;22.90;;;10.03;;
45368;SDS011;51342;55.250;37.668;2024-01-30T04:53:24;21.30;;;10.10;;
45368;SDS011;51342;55.250;37.668;2024-01-30T04:55:55;17.57;;;9.80;;
45368;SDS011;51342;55.250;37.668;2024-01-30T04:58:27;22.47;;;9.60;;
45368;SDS011;51342;55.250;37.668;2024-01-30T05:00:58;18.07;;;9.70;;
45368;SDS011;51342;55.250;37.668;2024-01-30T05:03:32;18.70;;;9.90;;
45368;SDS011;51342;55.250;37.668;2024-01-30T05:06:05;20.87;;;9.90;;
45368;SDS011;51342;55.250;37.668;2024-01-30T05:08:36;19.47;;;9.90;;
45368;SDS011;51342;55.250;37.668;2024-01-30T05:11:08;20.60;;;9.90;;
45368;SDS011;51342;55.250;37.668;2024-01-30T05:13:39;21.93;;;9.90;;
45368;SDS011;51342;55.250;37.668;2024-01-30T05:16:11;20.63;;;9.57;;
45368;SDS011;51342;55.250;37.668;2024-01-30T05:18:42;20.03;;;9.70;;
45368;SDS011;51342;55.250;37.668;2024-01-30T05:21:13;20.13;;;9.77;;
45368;SDS011;51342;55.250;37.668;2024-01-30T05:23:45;18.60;;;9.20;;
45368;SDS011;51342;55.250;37.668;2024-01-30T05:26:17;17.87;;;9.77;;
45368;SDS011;51342;55.250;37.668;2024-01-30T05:28:49;19.93;;;9.20;;
45368;SDS011;51342;55.250;37.668;2024-01-30T05:31:20;18.73;;;9.53;;
45368;SDS011;51342;55.250;37.668;2024-01-30T05:33:52;19.47;;;10.23;;
45368;SDS011;51342;55.250;37.668;2024-01-30T05:36:23;19.30;;;9.87;;
45368;SDS011;51342;55.250;37.668;2024-01-30T05:38:55;20.43;;;10.30;;
45368;SDS011;51342;55.250;37.668;2024-01-30T05:41:28;19.40;;;9.90;;
45368;SDS011;51342;55.250;37.668;2024-01-30T05:43:59;17.67;;;9.27;;
45368;SDS011;51342;55.250;37.668;2024-01-30T05:46:30;21.57;;;10.10;;
45368;SDS011;51342;55.250;37.668;2024-01-30T05:49:02;16.73;;;9.03;;
45368;SDS011;51342;55.250;37.668;2024-01-30T05:51:33;17.20;;;9.67;;
45368;SDS011;51342;55.250;37.668;2024-01-30T05:54:05;19.03;;;10.10;;
45368;SDS011;51342;55.250;37.668;2024-01-30T05:56:36;17.87;;;9.53;;
45368;SDS011;51342;55.250;37.668;2024-01-30T05:59:07;18.57;;;10.00;;
45368;SDS011;51342;55.250;37.668;2024-01-30T06:01:45;18.50;;;9.90;;
45368;SDS011;51342;55.250;37.668;2024-01-30T06:04:17;20.47;;;9.63;;
45368;SDS011;51342;55.250;37.668;2024-01-30T06:06:48;17.27;;;9.67;;
45368;SDS011;51342;55.250;37.668;2024-01-30T06:09:20;18.63;;;9.57;;
45368;SDS011;51342;55.250;37.668;2024-01-30T06:11:51;16.03;;;9.40;;
45368;SDS011;51342;55.250;37.668;2024-01-30T06:14:23;18.20;;;9.97;;
45368;SDS011;51342;55.250;37.668;2024-01-30T06:16:55;17.47;;;9.80;;
45368;SDS011;51342;55.250;37.668;2024-01-30T06:19:26;19.50;;;9.53;;
45368;SDS011;51342;55.250;37.668;2024-01-30T06:21:57;18.20;;;9.73;;
45368;SDS011;51342;55.250;37.668;2024-01-30T06:24:29;16.43;;;9.73;;
45368;SDS011;51342;55.250;37.668;2024-01-30T06:27:00;17.63;;;9.63;;
45368;SDS011;51342;55.250;37.668;2024-01-30T06:29:32;16.87;;;9.27;;
45368;SDS011;51342;55.250;37.668;2024-01-30T06:32:03;16.00;;;9.50;;
45368;SDS011;51342;55.250;37.668;2024-01-30T06:34:35;17.47;;;9.23;;
45368;SDS011;51342;55.250;37.668;2024-01-30T06:37:07;19.67;;;10.87;;
45368;SDS011;51342;55.250;37.668;2024-01-30T06:39:38;18.50;;;10.00;;
45368;SDS011;51342;55.250;37.668;2024-01-30T06:42:10;17.23;;;9.80;;
45368;SDS011;51342;55.250;37.668;2024-01-30T06:44:42;19.60;;;9.37;;
45368;SDS011;51342;55.250;37.668;2024-01-30T06:47:14;18.67;;;10.20;;
45368;SDS011;51342;55.250;37.668;2024-01-30T06:49:45;16.87;;;9.23;;
45368;SDS011;51342;55.250;37.668;2024-01-30T06:52:17;19.07;;;9.53;;
45368;SDS011;51342;55.250;37.668;2024-01-30T06:54:48;18.20;;;9.40;;
45368;SDS011;51342;55.250;37.668;2024-01-30T06:57:19;18.17;;;10.00;;
45368;SDS011;51342;55.250;37.668;2024-01-30T06:59:51;17.57;;;9.47;;
45368;SDS011;51342;55.250;37.668;2024-01-30T07:02:23;16.90;;;9.03;;
45368;SDS011;51342;55.250;37.668;2024-01-30T07:04:54;16.53;;;9.00;;
45368;SDS011;51342;55.250;37.668;2024-01-30T07:07:25;13.70;;;8.90;;
45368;SDS011;51342;55.250;37.668;2024-01-30T07:09:57;16.97;;;8.93;;
45368;SDS011;51342;55.250;37.668;2024-01-30T07:12:30;14.97;;;8.80;;
45368;SDS011;51342;55.250;37.668;2024-01-30T07:15:02;16.57;;;8.50;;
45368;SDS011;51342;55.250;37.668;2024-01-30T07:17:34;14.63;;;8.77;;
45368;SDS011;51342;55.250;37.668;2024-01-30T07:20:06;15.13;;;8.40;;
45368;SDS011;51342;55.250;37.668;2024-01-30T07:22:38;16.27;;;8.77;;
45368;SDS011;51342;55.250;37.668;2024-01-30T07:25:10;13.70;;;8.00;;
45368;SDS011;51342;55.250;37.668;2024-01-30T07:27:42;14.00;;;8.87;;
45368;SDS011;51342;55.250;37.668;2024-01-30T07:30:13;16.80;;;8.30;;
45368;SDS011;51342;55.250;37.668;2024-01-30T07:32:45;15.07;;;8.87;;
45368;SDS011;51342;55.250;37.668;2024-01-30T07:35:17;15.37;;;8.90;;
45368;SDS011;51342;55.250;37.668;2024-01-30T07:37:49;15.20;;;8.23;;
45368;SDS011;51342;55.250;37.668;2024-01-30T07:40:20;14.37;;;9.07;;
45368;SDS011;51342;55.250;37.668;2024-01-30T07:42:53;14.57;;;8.47;;
45368;SDS011;51342;55.250;37.668;2024-01-30T07:45:24;14.20;;;8.33;;
45368;SDS011;51342;55.250;37.668;2024-01-30T07:47:58;13.47;;;8.27;;
45368;SDS011;51342;55.250;37.668;2024-01-30T07:50:33;13.90;;;8.27;;
45368;SDS011;51342;55.250;37.668;2024-01-30T07:53:04;13.40;;;8.30;;
45368;SDS011;51342;55.250;37.668;2024-01-30T07:55:36;15.83;;;8.37;;
45368;SDS011;51342;55.250;37.668;2024-01-30T07:58:07;13.20;;;7.97;;
45368;SDS011;51342;55.250;37.668;2024-01-30T08:00:39;15.37;;;8.33;;
45368;SDS011;51342;55.250;37.668;2024-01-30T08:03:13;15.27;;;8.53;;
45368;SDS011;51342;55.250;37.668;2024-01-30T08:05:47;12.60;;;8.27;;
45368;SDS011;51342;55.250;37.668;2024-01-30T08:08:19;12.43;;;8.40;;
45368;SDS011;51342;55.250;37.668;2024-01-30T08:10:50;13.70;;;8.67;;
45368;SDS011;51342;55.250;37.668;2024-01-30T08:13:22;16.77;;;9.13;;
45368;SDS011;51342;55.250;37.668;2024-01-30T08:15:53;14.13;;;8.03;;
45368;SDS011;51342;55.250;37.668;2024-01-30T08:18:25;14.13;;;8.40;;
45368;SDS011;51342;55.250;37.668;2024-01-30T08:20:57;13.23;;;8.17;;
45368;SDS011;51342;55.250;37.668;2024-01-30T08:23:28;11.67;;;7.63;;
45368;SDS011;51342;55.250;37.668;2024-01-30T08:26:02;14.07;;;8.10;;
45368;SDS011;51342;55.250;37.668;2024-01-30T08:28:34;15.13;;;7.97;;
45368;SDS011;51342;55.250;37.668;2024-01-30T08:31:05;13.67;;;8.43;;
45368;SDS011;51342;55.250;37.668;2024-01-30T08:33:37;12.83;;;8.00;;
45368;SDS011;51342;55.250;37.668;2024-01-30T08:36:11;14.07;;;7.70;;
45368;SDS011;51342;55.250;37.668;2024-01-30T08:38:43;13.77;;;7.87;;
45368;SDS011;51342;55.250;37.668;2024-01-30T08:41:20;13.38;;;7.95;;
45368;SDS011;51342;55.250;37.668;2024-01-30T08:43:52;15.03;;;8.50;;
45368;SDS011;51342;55.250;37.668;2024-01-30T08:46:24;16.53;;;9.40;;
45368;SDS011;51342;55.250;37.668;2024-01-30T08:48:58;14.47;;;8.30;;
45368;SDS011;51342;55.250;37.668;2024-01-30T08:51:31;15.37;;;8.23;;
45368;SDS011;51342;55.250;37.668;2024-01-30T08:54:05;14.87;;;7.97;;
45368;SDS011;51342;55.250;37.668;2024-01-30T08:56:37;14.70;;;8.30;;
45368;SDS011;51342;55.250;37.668;2024-01-30T08:59:08;18.97;;;8.73;;
45368;SDS011;51342;55.250;37.668;2024-01-30T09:01:42;15.37;;;7.47;;
45368;SDS011;51342;55.250;37.668;2024-01-30T09:04:18;16.27;;;8.23;;
45368;SDS011;51342;55.250;37.668;2024-01-30T09:06:49;14.90;;;8.57;;
45368;SDS011;51342;55.250;37.668;2024-01-30T09:09:23;13.80;;;8.70;;
45368;SDS011;51342;55.250;37.668;2024-01-30T09:11:55;13.90;;;8.23;;
45368;SDS011;51342;55.250;37.668;2024-01-30T09:14:26;15.23;;;8.43;;
45368;SDS011;51342;55.250;37.668;2024-01-30T09:16:58;15.60;;;9.27;;
45368;SDS011;51342;55.250;37.668;2024-01-30T09:19:34;12.60;;;8.13;;
45368;SDS011;51342;55.250;37.668;2024-01-30T09:22:06;14.10;;;8.10;;
45368;SDS011;51342;55.250;37.668;2024-01-30T09:24:37;15.10;;;8.13;;
45368;SDS011;51342;55.250;37.668;2024-01-30T09:27:09;14.07;;;8.00;;
45368;SDS011;51342;55.250;37.668;2024-01-30T09:29:41;14.73;;;8.03;;
45368;SDS011;51342;55.250;37.668;2024-01-30T09:32:13;12.83;;;8.17;;
45368;SDS011;51342;55.250;37.668;2024-01-30T09:34:45;15.77;;;8.70;;
45368;SDS011;51342;55.250;37.668;2024-01-30T09:37:17;14.13;;;7.73;;
45368;SDS011;51342;55.250;37.668;2024-01-30T09:39:49;15.57;;;8.13;;
45368;SDS011;51342;55.250;37.668;2024-01-30T09:42:24;17.50;;;9.40;;
45368;SDS011;51342;55.250;37.668;2024-01-30T09:45:01;16.00;;;8.37;;
45368;SDS011;51342;55.250;37.668;2024-01-30T09:47:38;14.30;;;8.90;;
45368;SDS011;51342;55.250;37.668;2024-01-30T09:50:15;14.70;;;7.67;;
45368;SDS011;51342;55.250;37.668;2024-01-30T09:52:47;15.73;;;8.83;;
45368;SDS011;51342;55.250;37.668;2024-01-30T09:55:20;17.57;;;8.33;;
45368;SDS011;51342;55.250;37.668;2024-01-30T09:57:53;16.30;;;8.60;;
45368;SDS011;51342;55.250;37.668;2024-01-30T10:00:25;15.00;;;9.60;;
45368;SDS011;51342;55.250;37.668;2024-01-30T10:02:58;16.13;;;9.00;;
45368;SDS011;51342;55.250;37.668;2024-01-30T10:05:30;15.10;;;9.13;;
45368;SDS011;51342;55.250;37.668;2024-01-30T10:08:06;17.30;;;9.17;;
45368;SDS011;51342;55.250;37.668;2024-01-30T10:10:41;16.90;;;10.23;;
45368;SDS011;51342;55.250;37.668;2024-01-30T10:13:21;16.67;;;9.27;;
45368;SDS011;51342;55.250;37.668;2024-01-30T10:15:57;14.33;;;8.93;;
45368;SDS011;51342;55.250;37.668;2024-01-30T10:18:30;19.13;;;10.20;;
45368;SDS011;51342;55.250;37.668;2024-01-30T10:21:03;16.50;;;9.30;;
45368;SDS011;51342;55.250;37.668;2024-01-30T10:23:39;16.67;;;9.10;;
45368;SDS011;51342;55.250;37.668;2024-01-30T10:26:11;17.23;;;9.53;;
45368;SDS011;51342;55.250;37.668;2024-01-30T10:28:42;15.97;;;9.47;;
45368;SDS011;51342;55.250;37.668;2024-01-30T10:31:23;18.60;;;9.60;;
45368;SDS011;51342;55.250;37.668;2024-01-30T10:33:55;17.97;;;9.80;;
45368;SDS011;51342;55.250;37.668;2024-01-30T10:36:31;17.13;;;9.30;;
45368;SDS011;51342;55.250;37.668;2024-01-30T10:39:10;16.90;;;9.47;;
45368;SDS011;51342;55.250;37.668;2024-01-30T10:41:44;15.80;;;9.27;;
45368;SDS011;51342;55.250;37.668;2024-01-30T10:44:22;16.30;;;8.85;;
45368;SDS011;51342;55.250;37.668;2024-01-30T10:46:56;21.27;;;10.70;;
45368;SDS011;51342;55.250;37.668;2024-01-30T10:49:32;17.60;;;9.50;;
45368;SDS011;51342;55.250;37.668;2024-01-30T10:52:07;16.97;;;9.40;;
45368;SDS011;51342;55.250;37.668;2024-01-30T10:54:40;15.17;;;9.30;;
45368;SDS011;51342;55.250;37.668;2024-01-30T10:57:15;15.00;;;9.30;;
45368;SDS011;51342;55.250;37.668;2024-01-30T10:59:48;18.93;;;10.13;;
45368;SDS011;51342;55.250;37.668;2024-01-30T11:02:23;16.13;;;10.23;;
45368;SDS011;51342;55.250;37.668;2024-01-30T11:05:07;15.80;;;9.00;;
45368;SDS011;51342;55.250;37.668;2024-01-30T11:07:42;18.00;;;11.23;;
45368;SDS011;51342;55.250;37.668;2024-01-30T11:10:14;17.87;;;9.83;;
45368;SDS011;51342;55.250;37.668;2024-01-30T11:12:47;18.40;;;9.90;;
45368;SDS011;51342;55.250;37.668;2024-01-30T11:15:22;16.67;;;9.23;;
45368;SDS011;51342;55.250;37.668;2024-01-30T11:17:55;17.50;;;10.07;;
45368;SDS011;51342;55.250;37.668;2024-01-30T11:20:29;21.00;;;10.00;;
45368;SDS011;51342;55.250;37.668;2024-01-30T11:23:06;18.57;;;9.77;;
45368;SDS011;51342;55.250;37.668;2024-01-30T11:25:38;19.70;;;10.53;;
45368;SDS011;51342;55.250;37.668;2024-01-30T11:28:13;17.43;;;9.90;;
45368;SDS011;51342;55.250;37.668;2024-01-30T11:30:48;19.43;;;9.83;;
45368;SDS011;51342;55.250;37.668;2024-01-30T11:33:28;20.43;;;9.80;;
45368;SDS011;51342;55.250;37.668;2024-01-30T11:36:06;16.70;;;10.73;;
45368;SDS011;51342;55.250;37.668;2024-01-30T11:38:41;20.37;;;9.37;;
45368;SDS011;51342;55.250;37.668;2024-01-30T11:41:14;21.23;;;10.17;;
45368;SDS011;51342;55.250;37.668;2024-01-30T11:43:53;16.77;;;9.80;;
45368;SDS011;51342;55.250;37.668;2024-01-30T11:48:56;17.83;;;9.93;;
45368;SDS011;51342;55.250;37.668;2024-01-30T11:51:35;18.70;;;9.70;;
45368;SDS011;51342;55.250;37.668;2024-01-30T11:54:09;20.93;;;10.27;;
45368;SDS011;51342;55.250;37.668;2024-01-30T11:56:41;18.70;;;9.97;;
45368;SDS011;51342;55.250;37.668;2024-01-30T11:59:14;19.83;;;9.67;;
45368;SDS011;51342;55.250;37.668;2024-01-30T12:01:45;17.60;;;9.77;;
45368;SDS011;51342;55.250;37.668;2024-01-30T12:04:18;19.23;;;10.70;;
45368;SDS011;51342;55.250;37.668;2024-01-30T12:06:51;19.03;;;10.03;;
45368;SDS011;51342;55.250;37.668;2024-01-30T12:09:26;17.77;;;9.47;;
45368;SDS011;51342;55.250;37.668;2024-01-30T12:11:59;19.43;;;10.07;;
45368;SDS011;51342;55.250;37.668;2024-01-30T12:14:33;17.20;;;10.40;;
45368;SDS011;51342;55.250;37.668;2024-01-30T12:17:06;19.43;;;10.83;;
45368;SDS011;51342;55.250;37.668;2024-01-30T12:19:39;18.67;;;10.20;;
45368;SDS011;51342;55.250;37.668;2024-01-30T12:22:11;21.67;;;10.53;;
45368;SDS011;51342;55.250;37.668;2024-01-30T12:24:43;18.20;;;10.23;;
45368;SDS011;51342;55.250;37.668;2024-01-30T12:27:16;20.50;;;10.27;;
45368;SDS011;51342;55.250;37.668;2024-01-30T12:29:48;19.20;;;10.40;;
45368;SDS011;51342;55.250;37.668;2024-01-30T12:32:22;16.53;;;10.10;;
45368;SDS011;51342;55.250;37.668;2024-01-30T12:34:56;18.40;;;10.97;;
45368;SDS011;51342;55.250;37.668;2024-01-30T12:37:29;19.37;;;10.47;;
45368;SDS011;51342;55.250;37.668;2024-01-30T12:40:01;21.60;;;10.27;;
45368;SDS011;51342;55.250;37.668;2024-01-30T12:42:36;18.53;;;11.33;;
45368;SDS011;51342;55.250;37.668;2024-01-30T12:45:11;19.60;;;9.93;;
45368;SDS011;51342;55.250;37.668;2024-01-30T12:47:46;21.23;;;10.63;;
45368;SDS011;51342;55.250;37.668;2024-01-30T12:50:19;18.77;;;10.27;;
45368;SDS011;51342;55.250;37.668;2024-01-30T12:52:53;16.87;;;9.90;;
45368;SDS011;51342;55.250;37.668;2024-01-30T12:55:29;18.47;;;10.10;;
45368;SDS011;51342;55.250;37.668;2024-01-30T12:58:01;18.80;;;10.83;;
45368;SDS011;51342;55.250;37.668;2024-01-30T13:00:34;16.50;;;10.50;;
45368;SDS011;51342;55.250;37.668;2024-01-30T13:03:05;21.07;;;11.13;;
45368;SDS011;51342;55.250;37.668;2024-01-30T13:05:39;18.97;;;10.47;;
45368;SDS011;51342;55.250;37.668;2024-01-30T13:08:11;21.77;;;10.30;;
45368;SDS011;51342;55.250;37.668;2024-01-30T13:10:43;17.10;;;9.77;;
45368;SDS011;51342;55.250;37.668;2024-01-30T13:13:17;20.63;;;10.80;;
45368;SDS011;51342;55.250;37.668;2024-01-30T13:15:51;21.30;;;10.27;;
45368;SDS011;51342;55.250;37.668;2024-01-30T13:18:24;19.70;;;10.33;;
45368;SDS011;51342;55.250;37.668;2024-01-30T13:20:56;18.30;;;11.20;;
45368;SDS011;51342;55.250;37.668;2024-01-30T13:23:29;18.90;;;9.97;;
45368;SDS011;51342;55.250;37.668;2024-01-30T13:26:01;20.77;;;11.40;;
45368;SDS011;51342;55.250;37.668;2024-01-30T13:28:38;20.52;;;9.95;;
45368;SDS011;51342;55.250;37.668;2024-01-30T13:31:12;18.70;;;10.10;;
45368;SDS011;51342;55.250;37.668;2024-01-30T13:33:44;19.67;;;9.80;;
45368;SDS011;51342;55.250;37.668;2024-01-30T13:36:23;20.43;;;10.43;;
45368;SDS011;51342;55.250;37.668;2024-01-30T13:38:55;20.40;;;11.20;;
45368;SDS011;51342;55.250;37.668;2024-01-30T13:41:27;20.27;;;9.80;;
45368;SDS011;51342;55.250;37.668;2024-01-30T13:44:02;23.03;;;12.10;;
45368;SDS011;51342;55.250;37.668;2024-01-30T13:46:34;21.57;;;11.83;;
45368;SDS011;51342;55.250;37.668;2024-01-30T13:49:11;19.48;;;10.40;;
45368;SDS011;51342;55.250;37.668;2024-01-30T13:51:42;23.70;;;11.30;;
45368;SDS011;51342;55.250;37.668;2024-01-30T13:54:16;23.03;;;11.20;;
45368;SDS011;51342;55.250;37.668;2024-01-30T13:56:50;20.50;;;10.83;;
45368;SDS011;51342;55.250;37.668;2024-01-30T13:59:21;20.37;;;11.13;;
45368;SDS011;51342;55.250;37.668;2024-01-30T14:01:58;23.33;;;11.10;;
45368;SDS011;51342;55.250;37.668;2024-01-30T14:04:36;21.13;;;11.37;;
45368;SDS011;51342;55.250;37.668;2024-01-30T14:07:08;21.37;;;11.30;;
45368;SDS011;51342;55.250;37.668;2024-01-30T14:09:40;19.80;;;11.13;;
45368;SDS011;51342;55.250;37.668;2024-01-30T14:12:13;21.53;;;11.57;;
45368;SDS011;51342;55.250;37.668;2024-01-30T14:14:47;23.27;;;11.40;;
45368;SDS011;51342;55.250;37.668;2024-01-30T14:17:21;20.53;;;10.83;;
45368;SDS011;51342;55.250;37.668;2024-01-30T14:19:57;20.27;;;11.77;;
45368;SDS011;51342;55.250;37.668;2024-01-30T14:22:28;21.80;;;11.10;;
45368;SDS011;51342;55.250;37.668;2024-01-30T14:25:00;21.13;;;11.50;;
45368;SDS011;51342;55.250;37.668;2024-01-30T14:27:34;23.43;;;12.67;;
45368;SDS011;51342;55.250;37.668;2024-01-30T14:30:09;21.83;;;12.07;;
45368;SDS011;51342;55.250;37.668;2024-01-30T14:32:42;23.43;;;12.20;;
45368;SDS011;51342;55.250;37.668;2024-01-30T14:35:15;23.47;;;11.73;;
45368;SDS011;51342;55.250;37.668;2024-01-30T14:37:47;20.57;;;12.17;;
45368;SDS011;51342;55.250;37.668;2024-01-30T14:40:19;24.57;;;12.00;;
45368;SDS011;51342;55.250;37.668;2024-01-30T14:42:52;21.17;;;12.77;;
45368;SDS011;51342;55.250;37.668;2024-01-30T14:45:28;23.37;;;11.60;;
45368;SDS011;51342;55.250;37.668;2024-01-30T14:48:00;23.10;;;11.47;;
45368;SDS011;51342;55.250;37.668;2024-01-30T14:50:32;21.57;;;11.87;;